Time;durP1;ratioP1;P1;durP2;ratioP2;P2;SDS_P1;SDS_P2;PMS_P1;PMS_P2;Temp;Humidity;BMP_temperature;BMP_pressure;BME280_temperature;BME280_humidity;BME280_pressure;Samples;Min_cycle;Max_cycle;Signal;HPM_P1;HPM_P2
2022/04/17 00:54:19;;;;;;;9.52;5.20;;;6.50;71.80;;;;;;10086358;29;20080;-88
2022/04/17 00:59:42;;;;;;;10.30;4.82;;;5.70;71.40;;;;;;10008237;29;20594;-86
2022/04/17 01:05:04;;;;;;;7.78;4.65;;;6.30;71.80;;;;;;10137740;29;20519;-87
2022/04/17 01:10:07;;;;;;;6.85;4.60;;;6.30;71.90;;;;;;10370618;28;20064;-85
2022/04/17 01:15:08;;;;;;;8.70;4.57;;;6.30;72.10;;;;;;10449707;28;20057;-87
2022/04/17 01:20:11;;;;;;;8.68;5.15;;;6.20;72.20;;;;;;10450877;28;20033;-85
2022/04/17 01:30:53;;;;;;;11.07;5.43;;;7.50;73.30;;;;;;10443980;28;20032;-86
2022/04/17 01:35:57;;;;;;;12.00;5.15;;;6.30;72.80;;;;;;10449591;28;20033;-86
2022/04/17 01:41:04;;;;;;;8.90;5.50;;;6.10;72.90;;;;;;10450049;28;20052;-85
2022/04/17 01:46:10;;;;;;;8.65;5.18;;;6.00;73.00;;;;;;10444399;28;20033;-84
2022/04/17 01:51:14;;;;;;;9.13;4.65;;;7.20;74.00;;;;;;10450117;28;20029;-85
2022/04/17 01:56:18;;;;;;;8.77;4.63;;;6.40;73.70;;;;;;10418422;28;20057;-85
2022/04/17 02:01:24;;;;;;;9.13;5.30;;;7.10;74.30;;;;;;10446963;28;20458;-84
2022/04/17 02:06:26;;;;;;;12.80;5.10;;;7.10;74.50;;;;;;10448488;28;20033;-85
2022/04/17 02:11:35;;;;;;;9.43;5.00;;;5.80;74.00;;;;;;10446465;28;20040;-85
2022/04/17 02:16:38;;;;;;;8.93;5.28;;;5.70;74.30;;;;;;10445926;28;20395;-86
2022/04/17 02:21:38;;;;;;;10.55;5.38;;;5.70;74.50;;;;;;10425862;28;20068;-86
2022/04/17 02:26:39;;;;;;;7.68;5.70;;;6.40;75.10;;;;;;10446874;28;20080;-86
2022/04/17 02:51:33;;;;;;;11.05;5.10;;;5.30;75.90;;;;;;10240785;28;20023;-85
2022/04/17 02:56:54;;;;;;;9.90;5.78;;;5.90;76.70;;;;;;10206374;29;20046;-85
2022/04/17 03:33:57;;;;;;;12.52;5.65;;;5.20;77.90;;;;;;10329060;28;20483;-88
2022/04/17 04:25:48;;;;;;;8.77;5.60;;;4.50;80.40;;;;;;10281597;28;20061;-85
2022/04/17 04:50:15;;;;;;;12.13;6.25;;;5.80;82.20;;;;;;10002518;29;20029;-84
2022/04/17 04:55:16;;;;;;;10.50;6.43;;;4.30;81.30;;;;;;10358905;28;20038;-84
2022/04/17 05:00:17;;;;;;;11.82;6.00;;;4.30;81.60;;;;;;10412494;28;20022;-86
2022/04/17 05:05:18;;;;;;;13.27;6.55;;;4.20;81.90;;;;;;10414886;28;20911;-85
2022/04/17 05:10:18;;;;;;;10.85;6.47;;;4.20;82.20;;;;;;10429671;28;20059;-85
2022/04/17 05:15:21;;;;;;;11.10;6.50;;;4.20;82.30;;;;;;10446491;28;20045;-85
2022/04/17 05:20:23;;;;;;;12.77;6.80;;;4.30;82.60;;;;;;10395517;28;20323;-86
2022/04/17 05:25:24;;;;;;;11.85;6.70;;;4.30;83.40;;;;;;10416201;28;20120;-85
2022/04/17 05:30:24;;;;;;;12.35;7.20;;;4.30;83.10;;;;;;10390953;28;20098;-86
2022/04/17 05:35:25;;;;;;;14.20;6.82;;;4.40;83.40;;;;;;10407980;28;20451;-85
2022/04/17 05:40:26;;;;;;;11.15;5.78;;;4.40;83.60;;;;;;10407163;28;20064;-85
2022/04/17 05:45:27;;;;;;;11.63;6.30;;;4.50;83.60;;;;;;10387387;28;20091;-85
2022/04/17 05:50:28;;;;;;;12.77;6.63;;;4.50;83.90;;;;;;10435234;28;20543;-85
2022/04/17 05:55:29;;;;;;;12.90;6.53;;;4.70;84.10;;;;;;10397490;28;20091;-84
2022/04/17 06:00:30;;;;;;;11.73;6.45;;;4.80;84.10;;;;;;10422681;28;20041;-84
2022/04/17 06:05:30;;;;;;;11.30;6.43;;;5.00;84.40;;;;;;10419854;28;20084;-84
2022/04/17 06:10:31;;;;;;;12.52;6.95;;;5.10;84.60;;;;;;10393419;28;20025;-85
2022/04/17 06:15:32;;;;;;;11.20;6.72;;;5.30;84.60;;;;;;10409902;28;20036;-85
2022/04/17 06:20:33;;;;;;;14.52;6.78;;;5.50;84.70;;;;;;10437556;28;20141;-85
2022/04/17 06:31:47;;;;;;;12.02;7.10;;;6.00;85.60;;;;;;10333024;28;20250;-84
2022/04/17 06:36:48;;;;;;;11.45;5.97;;;6.20;84.20;;;;;;10443243;28;20069;-84
2022/04/17 06:41:49;;;;;;;8.98;6.03;;;7.90;85.00;;;;;;10446286;28;20582;-84
2022/04/17 06:46:53;;;;;;;12.65;6.07;;;6.80;83.10;;;;;;10403760;28;20032;-85
2022/04/17 06:58:54;;;;;;;9.10;5.78;;;7.40;82.50;;;;;;10198322;28;20051;-84
2022/04/17 07:03:55;;;;;;;9.52;5.75;;;9.00;81.80;;;;;;10276953;28;20063;-85
2022/04/17 07:08:56;;;;;;;11.13;5.97;;;7.90;80.20;;;;;;10442445;28;20476;-84
2022/04/17 07:13:57;;;;;;;13.90;5.85;;;8.10;80.20;;;;;;10446314;28;20032;-85
2022/04/17 07:18:57;;;;;;;10.90;6.00;;;8.30;79.20;;;;;;10430301;28;20134;-84
2022/04/17 07:23:58;;;;;;;9.25;5.03;;;9.40;79.40;;;;;;10446500;28;20064;-83
2022/04/17 07:28:59;;;;;;;9.18;5.32;;;9.20;78.40;;;;;;10409870;28;20033;-84
2022/04/17 07:34:00;;;;;;;8.20;5.15;;;8.90;77.70;;;;;;10452468;28;20465;-85
2022/04/17 07:39:01;;;;;;;10.43;5.55;;;9.00;77.30;;;;;;10451658;28;20021;-84
2022/04/17 07:44:01;;;;;;;8.15;5.20;;;9.50;76.70;;;;;;10434089;28;20037;-84
2022/04/17 07:49:02;;;;;;;9.57;5.10;;;9.30;75.90;;;;;;10452298;28;20044;-84
2022/04/17 07:54:03;;;;;;;10.55;4.93;;;10.00;75.90;;;;;;10452308;28;20056;-84
2022/04/17 07:59:05;;;;;;;9.57;5.32;;;9.70;75.10;;;;;;10452894;28;20060;-85
2022/04/17 08:04:05;;;;;;;7.22;4.60;;;9.90;74.70;;;;;;10462293;28;20052;-84
2022/04/17 08:09:06;;;;;;;11.18;5.00;;;10.10;74.40;;;;;;10425183;28;20391;-84
2022/04/17 08:14:07;;;;;;;10.38;4.88;;;10.30;73.50;;;;;;10436313;28;20035;-85
2022/04/17 08:19:07;;;;;;;7.90;4.55;;;10.50;73.20;;;;;;10405140;28;20044;-84
2022/04/17 08:24:08;;;;;;;8.38;4.57;;;10.60;72.70;;;;;;10434802;28;20045;-84
2022/04/17 08:29:10;;;;;;;7.82;4.80;;;10.80;72.80;;;;;;10452214;28;20021;-85
2022/04/17 08:34:11;;;;;;;7.93;4.65;;;11.50;72.30;;;;;;10452332;28;20044;-84
2022/04/17 08:39:11;;;;;;;8.32;4.78;;;11.20;72.00;;;;;;10452521;28;20037;-84
2022/04/17 08:44:12;;;;;;;5.68;3.83;;;11.30;71.10;;;;;;10434006;28;20040;-85
2022/04/17 08:49:13;;;;;;;8.90;4.72;;;11.60;71.00;;;;;;10453011;28;20029;-84
2022/04/17 08:54:15;;;;;;;8.10;4.60;;;11.90;70.50;;;;;;10452868;28;20028;-84
2022/04/17 08:59:16;;;;;;;9.23;4.53;;;12.30;70.50;;;;;;10452963;28;20017;-84
2022/04/17 09:04:17;;;;;;;7.15;4.18;;;12.50;69.50;;;;;;10452026;28;20036;-84
2022/04/17 09:09:20;;;;;;;7.10;3.55;;;12.50;68.50;;;;;;10434044;28;20028;-85
2022/04/17 09:14:21;;;;;;;9.88;4.00;;;12.80;68.30;;;;;;10424106;28;20029;-85
2022/04/17 09:19:25;;;;;;;7.43;3.78;;;12.90;67.60;;;;;;10433303;28;20507;-85
2022/04/17 09:24:26;;;;;;;7.55;4.38;;;13.10;66.60;;;;;;10451949;28;20029;-84
2022/04/17 09:29:29;;;;;;;7.93;4.30;;;13.40;66.30;;;;;;10451091;28;20021;-84
2022/04/17 09:34:52;;;;;;;8.13;4.05;;;13.60;65.90;;;;;;10432043;28;20041;-84
2022/04/17 09:40:04;;;;;;;6.13;4.10;;;13.90;64.10;;;;;;10434003;28;20029;-84
2022/04/17 09:45:07;;;;;;;11.32;4.45;;;14.30;65.00;;;;;;10449343;28;20496;-85
2022/04/17 09:50:08;;;;;;;8.05;4.30;;;14.70;64.60;;;;;;10437557;28;20032;-84
2022/04/17 09:55:10;;;;;;;5.80;4.10;;;15.00;62.70;;;;;;10431430;28;20117;-85
2022/04/17 19:41:42;;;;;;;5.35;3.90;;;13.40;55.10;;;;;;10425175;28;20429;-85
2022/04/17 19:46:42;;;;;;;10.00;4.90;;;12.90;55.00;;;;;;10445726;28;20051;-85
2022/04/17 19:51:43;;;;;;;7.60;4.35;;;13.00;56.00;;;;;;10426834;28;20056;-85
2022/04/17 19:56:45;;;;;;;6.30;4.70;;;12.80;55.40;;;;;;10451043;28;20033;-85
2022/04/17 20:01:47;;;;;;;7.47;4.97;;;12.70;55.60;;;;;;10450770;28;20052;-85
2022/04/17 20:06:48;;;;;;;8.00;5.38;;;12.50;55.80;;;;;;10449601;28;20128;-85
2022/04/17 20:11:51;;;;;;;6.43;5.03;;;12.40;56.20;;;;;;10446444;28;20495;-85
2022/04/17 20:16:57;;;;;;;8.02;5.10;;;12.30;56.40;;;;;;10453113;28;20045;-85
2022/04/17 20:22:00;;;;;;;8.52;5.07;;;12.20;56.60;;;;;;10446533;28;20049;-84
2022/04/17 20:27:03;;;;;;;8.52;5.40;;;12.00;56.90;;;;;;10432657;28;20103;-85
2022/04/17 20:32:05;;;;;;;8.00;5.57;;;11.90;57.20;;;;;;10431439;28;20033;-84
2022/04/17 20:37:05;;;;;;;7.32;5.10;;;11.50;57.20;;;;;;10421133;28;20518;-85
2022/04/17 20:42:06;;;;;;;8.40;5.05;;;11.60;57.40;;;;;;10447520;28;20057;-85
2022/04/17 20:52:26;;;;;;;13.75;6.68;;;11.50;57.50;;;;;;10432629;28;20037;-84
2022/04/17 20:57:27;;;;;;;20.73;10.88;;;11.20;57.60;;;;;;10433153;28;20439;-84
2022/04/17 21:02:28;;;;;;;27.58;14.45;;;11.10;57.70;;;;;;10432847;28;20210;-84
2022/04/17 21:07:31;;;;;;;31.00;15.63;;;11.00;57.80;;;;;;10440594;28;20051;-85
2022/04/17 21:12:49;;;;;;;30.92;16.65;;;10.80;57.40;;;;;;10409006;28;20044;-84
2022/04/17 21:17:58;;;;;;;31.88;16.92;;;10.70;57.90;;;;;;10416906;28;20056;-84
2022/04/17 21:22:59;;;;;;;32.30;15.77;;;10.70;58.00;;;;;;10426390;28;20095;-85
2022/04/17 21:28:02;;;;;;;26.98;15.38;;;10.60;58.10;;;;;;10422574;28;20103;-84
2022/04/17 21:33:05;;;;;;;29.88;15.15;;;10.50;58.30;;;;;;10444592;28;20064;-84
2022/04/17 21:38:06;;;;;;;25.77;13.25;;;10.40;58.60;;;;;;10430555;28;20049;-85
2022/04/17 21:43:07;;;;;;;26.20;12.68;;;9.90;58.50;;;;;;10426711;28;20327;-84
2022/04/17 21:48:08;;;;;;;21.65;11.02;;;10.20;58.90;;;;;;10425275;28;20041;-84
2022/04/17 21:53:09;;;;;;;22.08;10.55;;;10.00;59.00;;;;;;10428119;28;20032;-84
2022/04/17 21:58:11;;;;;;;20.25;10.27;;;10.00;59.30;;;;;;10412432;28;20083;-84
2022/04/17 22:08:32;;;;;;;31.98;12.93;;;10.10;59.90;;;;;;10444809;28;20045;-86
2022/04/17 22:13:33;;;;;;;27.48;13.27;;;10.10;60.10;;;;;;10443642;28;20036;-85
2022/04/17 22:18:34;;;;;;;29.95;13.82;;;9.60;60.10;;;;;;10444925;28;20037;-85
2022/04/17 22:23:35;;;;;;;27.15;12.50;;;9.50;60.40;;;;;;10443298;28;20060;-85
2022/04/17 22:28:35;;;;;;;26.02;12.02;;;9.40;60.50;;;;;;10444356;28;20256;-85
2022/04/17 22:33:36;;;;;;;23.23;10.60;;;8.60;60.10;;;;;;10424970;28;20052;-84
2022/04/17 22:38:37;;;;;;;28.55;12.05;;;9.30;60.70;;;;;;10433497;28;20606;-85
2022/04/17 22:43:38;;;;;;;30.45;12.82;;;8.60;60.50;;;;;;10426218;28;20997;-84
2022/04/17 22:48:40;;;;;;;32.83;14.73;;;9.10;61.00;;;;;;10436147;28;20099;-84
2022/04/17 22:54:19;;;;;;;27.65;14.25;;;9.00;61.30;;;;;;10442923;28;20065;-85
2022/04/17 22:59:22;;;;;;;31.30;15.27;;;9.10;61.70;;;;;;10406620;28;20052;-85
2022/04/17 23:04:22;;;;;;;34.53;16.00;;;8.90;61.60;;;;;;10422324;28;20513;-85
2022/04/17 23:09:23;;;;;;;33.15;14.88;;;8.80;61.90;;;;;;10407922;28;20306;-84
2022/04/17 23:14:24;;;;;;;31.10;15.15;;;8.80;62.00;;;;;;10439630;28;20408;-85
2022/04/17 23:19:25;;;;;;;36.90;14.48;;;8.70;62.20;;;;;;10424508;28;20402;-84
2022/04/17 23:24:25;;;;;;;28.15;13.82;;;8.70;62.50;;;;;;10422090;28;20111;-84
2022/04/17 23:29:26;;;;;;;33.25;14.95;;;8.60;62.60;;;;;;10409773;28;20037;-84
2022/04/17 23:34:27;;;;;;;31.35;15.25;;;8.50;62.70;;;;;;10410550;28;20035;-84
2022/04/17 23:39:28;;;;;;;30.50;14.48;;;8.40;62.90;;;;;;10421461;28;20041;-84
2022/04/17 23:44:49;;;;;;;31.27;14.50;;;8.60;63.30;;;;;;10439222;28;20499;-85
2022/04/17 23:49:50;;;;;;;25.73;13.45;;;8.30;63.40;;;;;;10425849;28;20087;-84
2022/04/17 23:54:51;;;;;;;32.97;14.85;;;8.20;63.50;;;;;;10425389;28;20140;-85
2022/04/17 23:59:52;;;;;;;29.27;13.88;;;8.20;63.60;;;;;;10435516;28;20061;-84
